createdAt,value
2023-11-24T00:02:00.850Z,101490.75
2023-11-24T00:04:31.313Z,101472.59
2023-11-24T00:06:59.340Z,101477.75
2023-11-24T00:09:28.816Z,101482.94
2023-11-24T00:11:56.577Z,101490.63
2023-11-24T00:14:23.812Z,101481.03
2023-11-24T00:16:50.915Z,101480.19
2023-11-24T00:19:18.012Z,101475.84
2023-11-24T00:21:45.642Z,101483.63
2023-11-24T00:24:14.106Z,101473.31
2023-11-24T00:26:41.796Z,101479.41
2023-11-24T00:29:08.933Z,101478.59
2023-11-24T00:31:36.105Z,101476.03
2023-11-24T00:34:03.378Z,101474.31
2023-11-24T00:36:31.285Z,101482.16
2023-11-24T00:38:58.408Z,101477.88
2023-11-24T00:41:26.270Z,101472.69
2023-11-24T00:43:53.358Z,101473.63
2023-11-24T00:46:20.539Z,101471.03
2023-11-24T00:48:48.549Z,101467.66
2023-11-24T00:51:18.820Z,101460.75
2023-11-24T00:53:46.314Z,101454.69
2023-11-24T00:56:13.432Z,101453.81
2023-11-24T00:58:40.553Z,101446.91
2023-11-24T01:01:10.628Z,101447.78
2023-11-24T01:03:39.642Z,101443.44
2023-11-24T01:06:07.343Z,101440.84
2023-11-24T01:08:34.634Z,101444.38
2023-11-24T01:11:06.478Z,101430.56
2023-11-24T01:13:36.287Z,101432.28
2023-11-24T01:16:06.302Z,101434.00
2023-11-24T01:18:37.709Z,101434.00
2023-11-24T01:21:08.589Z,101436.66
2023-11-24T01:23:36.832Z,101435.78
2023-11-24T01:26:04.559Z,101433.25
2023-11-24T01:28:31.662Z,101435.84
2023-11-24T01:30:58.960Z,101435.00
2023-11-24T01:33:26.266Z,101434.13
2023-11-24T01:35:55.089Z,101439.38
2023-11-24T01:38:22.227Z,101443.75
2023-11-24T01:40:49.344Z,101442.88
2023-11-24T01:43:17.325Z,101442.88
2023-11-24T01:45:46.805Z,101441.13
2023-11-24T01:48:17.293Z,101436.03
2023-11-24T01:50:45.256Z,101439.47
2023-11-24T01:53:12.858Z,101438.63
2023-11-24T01:55:40.049Z,101433.44
2023-11-24T01:58:08.069Z,101437.75
2023-11-24T02:00:37.140Z,101431.72
2023-11-24T02:03:04.383Z,101433.47
2023-11-24T02:05:31.865Z,101423.13
2023-11-24T02:07:59.265Z,101417.09
2023-11-24T02:10:27.200Z,101421.38
2023-11-24T02:12:54.482Z,101427.38
2023-11-24T02:15:21.783Z,101421.38
2023-11-24T02:17:49.092Z,101417.94
2023-11-24T02:20:16.829Z,101420.56
2023-11-24T02:22:44.784Z,101414.56
2023-11-24T02:25:12.926Z,101414.53
2023-11-24T02:27:40.425Z,101408.47
2023-11-24T02:30:08.254Z,101407.63
2023-11-24T02:32:35.649Z,101405.94
2023-11-24T02:35:04.140Z,101405.97
2023-11-24T02:37:32.199Z,101405.97
2023-11-24T02:39:59.462Z,101399.94
2023-11-24T02:42:27.473Z,101406.88
2023-11-24T02:44:54.729Z,101402.53
2023-11-24T02:47:22.385Z,101392.22
2023-11-24T02:49:49.595Z,101390.47
2023-11-24T02:52:16.732Z,101391.31
2023-11-24T02:54:44.007Z,101386.16
2023-11-24T02:57:11.229Z,101377.56
2023-11-24T02:59:38.382Z,101374.97
2023-11-24T03:02:07.877Z,101369.78
2023-11-24T03:04:35.104Z,101362.00
2023-11-24T03:07:02.542Z,101350.81
2023-11-24T03:09:29.665Z,101349.13
2023-11-24T03:11:57.240Z,101352.56
2023-11-24T03:14:25.263Z,101344.81
2023-11-24T03:16:52.904Z,101343.97
2023-11-24T03:19:20.877Z,101338.78
2023-11-24T03:21:48.167Z,101340.50
2023-11-24T03:24:16.611Z,101331.91
2023-11-24T03:26:43.709Z,101334.50
2023-11-24T03:29:10.863Z,101334.50
2023-11-24T03:31:40.872Z,101335.34
2023-11-24T03:34:08.272Z,101344.84
2023-11-24T03:36:35.504Z,101366.44
2023-11-24T03:39:02.625Z,101362.97
2023-11-24T03:41:29.741Z,101359.53
2023-11-24T03:43:56.868Z,101356.94
2023-11-24T03:46:24.016Z,101353.47
2023-11-24T03:48:51.470Z,101358.69
2023-11-24T03:51:20.093Z,101351.78
2023-11-24T03:53:47.311Z,101347.47
2023-11-24T03:56:16.165Z,101342.28
2023-11-24T03:58:44.035Z,101342.22
2023-11-24T04:01:15.516Z,101343.97
2023-11-24T04:03:49.197Z,101338.81
2023-11-24T04:06:16.525Z,101355.22
2023-11-24T04:08:44.337Z,101344.88
2023-11-24T04:11:12.065Z,101347.47
2023-11-24T04:13:39.359Z,101340.56
2023-11-24T04:16:08.219Z,101339.75
2023-11-24T04:18:35.457Z,101334.59
2023-11-24T04:21:02.763Z,101339.78
2023-11-24T04:23:29.865Z,101333.78
2023-11-24T04:25:56.953Z,101328.63
2023-11-24T04:28:24.170Z,101320.91
2023-11-24T04:30:51.394Z,101314.84
2023-11-24T04:33:19.999Z,101307.94
2023-11-24T04:35:48.327Z,101307.09
2023-11-24T04:38:15.393Z,101297.63
2023-11-24T04:40:42.569Z,101298.50
2023-11-24T04:43:09.854Z,101305.41
2023-11-24T04:45:37.129Z,101307.13
2023-11-24T04:48:04.635Z,101306.25
2023-11-24T04:50:31.774Z,101303.66
2023-11-24T04:52:58.869Z,101300.19
2023-11-24T04:55:28.029Z,101311.47
2023-11-24T04:57:55.798Z,101320.09
2023-11-24T05:00:23.094Z,101309.81
2023-11-24T05:02:50.976Z,101312.44
2023-11-24T05:05:18.810Z,101311.56
2023-11-24T05:07:45.961Z,101308.16
2023-11-24T05:10:13.251Z,101312.44
2023-11-24T05:12:40.603Z,101299.47
2023-11-24T05:15:09.846Z,101306.38
2023-11-24T05:17:37.444Z,101300.34
2023-11-24T05:20:07.468Z,101300.34
2023-11-24T05:22:35.185Z,101300.34
2023-11-24T05:25:02.344Z,101302.06
2023-11-24T05:27:29.715Z,101293.47
2023-11-24T05:29:56.813Z,101292.63
2023-11-24T05:32:23.924Z,101290.88
2023-11-24T05:34:52.457Z,101292.63
2023-11-24T05:37:19.652Z,101287.44
2023-11-24T05:39:46.869Z,101293.50
2023-11-24T05:42:15.043Z,101277.94
2023-11-24T05:44:42.871Z,101281.41
2023-11-24T05:47:10.010Z,101269.31
2023-11-24T05:49:37.132Z,101272.78
2023-11-24T05:52:04.529Z,101278.84
2023-11-24T05:54:33.645Z,101270.25
2023-11-24T05:57:00.893Z,101283.16
2023-11-24T05:59:30.808Z,101280.59
2023-11-24T06:01:58.892Z,101257.34
2023-11-24T06:04:26.197Z,101248.72
2023-11-24T06:06:53.501Z,101259.97
2023-11-24T06:09:20.661Z,101253.97
2023-11-24T06:11:47.827Z,101255.72
2023-11-24T06:14:15.022Z,101260.88
2023-11-24T06:16:42.167Z,101276.41
2023-11-24T06:19:09.397Z,101285.91
2023-11-24T06:21:37.428Z,101268.66
2023-11-24T06:24:04.780Z,101256.63
2023-11-24T06:26:34.416Z,101246.28
2023-11-24T06:29:01.644Z,101239.38
2023-11-24T06:31:29.456Z,101248.91
2023-11-24T06:33:56.712Z,101244.59
2023-11-24T06:36:23.885Z,101245.47
2023-11-24T06:38:51.000Z,101253.22
2023-11-24T06:41:18.104Z,101260.94
2023-11-24T06:43:45.243Z,101289.38
2023-11-24T06:46:13.504Z,101250.66
2023-11-24T06:48:40.690Z,101248.97
2023-11-24T06:51:08.687Z,101252.44
2023-11-24T06:53:35.878Z,101254.19
2023-11-24T06:56:03.931Z,101268.78
2023-11-24T06:58:31.038Z,101262.78
2023-11-24T07:00:58.243Z,101267.94
2023-11-24T07:03:25.380Z,101262.75
2023-11-24T07:05:52.512Z,101264.47
2023-11-24T07:08:19.588Z,101256.72
2023-11-24T07:10:46.727Z,101257.56
2023-11-24T07:13:13.916Z,101259.28
2023-11-24T07:15:41.101Z,101250.69
2023-11-24T07:18:08.704Z,101251.53
2023-11-24T07:20:35.919Z,101251.50
2023-11-24T07:23:03.036Z,101246.31
2023-11-24T07:25:30.155Z,101258.41
2023-11-24T07:27:57.523Z,101250.63
2023-11-24T07:30:26.734Z,101249.75
2023-11-24T07:32:53.950Z,101242.81
2023-11-24T07:35:21.606Z,101236.78
2023-11-24T07:37:48.753Z,101250.53
2023-11-24T07:40:16.598Z,101247.13
2023-11-24T07:42:45.828Z,101250.56
2023-11-24T07:45:13.647Z,101274.72
2023-11-24T07:47:41.898Z,101271.31
2023-11-24T07:50:09.238Z,101279.94
2023-11-24T07:52:38.109Z,101262.72
2023-11-24T07:55:07.037Z,101256.69
2023-11-24T07:57:34.392Z,101246.41
2023-11-24T08:00:01.965Z,101243.81
2023-11-24T08:02:29.553Z,101244.66
2023-11-24T08:04:56.772Z,101241.19
2023-11-24T08:07:24.050Z,101239.47
2023-11-24T08:09:51.325Z,101245.50
2023-11-24T08:12:18.390Z,101251.53
2023-11-24T08:14:45.775Z,101242.09
2023-11-24T08:17:12.980Z,101225.72
2023-11-24T08:19:43.772Z,101238.66
2023-11-24T08:22:11.361Z,101231.78
2023-11-24T08:24:40.361Z,101224.00
2023-11-24T08:27:07.519Z,101232.59
2023-11-24T08:29:35.322Z,101230.88
2023-11-24T08:32:03.829Z,101229.13
2023-11-24T08:34:31.801Z,101231.69
2023-11-24T08:37:01.690Z,101228.25
2023-11-24T08:39:28.868Z,101215.31
2023-11-24T08:41:55.908Z,101227.38
2023-11-24T08:44:26.003Z,101205.84
2023-11-24T08:46:56.393Z,101212.75
2023-11-24T08:49:23.963Z,101208.47
2023-11-24T08:51:51.217Z,101212.78
2023-11-24T08:54:18.355Z,101215.38
2023-11-24T08:56:45.498Z,101225.69
2023-11-24T08:59:13.380Z,101233.41
2023-11-24T09:01:40.731Z,101214.50
2023-11-24T09:04:08.857Z,101213.72
2023-11-24T09:06:40.232Z,101211.19
2023-11-24T09:09:11.064Z,101216.38
2023-11-24T09:11:38.291Z,101205.19
2023-11-24T09:14:06.338Z,101202.59
2023-11-24T09:16:34.280Z,101187.09
2023-11-24T09:19:01.731Z,101200.00
2023-11-24T09:21:32.477Z,101186.19
2023-11-24T09:23:59.694Z,101186.13
2023-11-24T09:26:26.844Z,101187.00
2023-11-24T09:28:54.025Z,101180.03
2023-11-24T09:31:21.312Z,101167.97
2023-11-24T09:33:48.404Z,101179.16
2023-11-24T09:36:15.647Z,101178.25
2023-11-24T09:38:42.890Z,101178.19
2023-11-24T09:41:12.655Z,101178.19
2023-11-24T09:43:40.154Z,101178.19
2023-11-24T09:46:12.250Z,101183.31
2023-11-24T09:48:46.535Z,101182.44
2023-11-24T09:51:18.295Z,101199.63
2023-11-24T09:53:45.909Z,101216.81
2023-11-24T09:56:13.801Z,101223.78
2023-11-24T09:58:43.822Z,101202.38
2023-11-24T10:01:11.031Z,101194.69
2023-11-24T10:03:42.514Z,101191.31
2023-11-24T10:06:12.958Z,101198.25
2023-11-24T10:08:41.725Z,101199.94
2023-11-24T10:11:14.791Z,101209.41
2023-11-24T10:13:49.208Z,101191.31
2023-11-24T10:16:18.295Z,101185.31
2023-11-24T10:18:47.432Z,101181.00
2023-11-24T10:21:23.771Z,101176.72
2023-11-24T10:23:59.338Z,101168.09
2023-11-24T10:26:27.174Z,101174.97
2023-11-24T10:28:57.137Z,101164.63
2023-11-24T10:31:24.751Z,101165.44
2023-11-24T10:33:52.905Z,101159.38
2023-11-24T10:36:26.868Z,101170.53
2023-11-24T10:39:04.093Z,101173.09
2023-11-24T10:41:39.861Z,101148.97
2023-11-24T10:44:10.391Z,101145.50
2023-11-24T10:46:43.185Z,101129.19
2023-11-24T10:49:30.588Z,101131.78
2023-11-24T10:52:12.889Z,101122.34
2023-11-24T10:54:46.877Z,101118.94
2023-11-24T10:57:15.055Z,101132.72
2023-11-24T10:59:44.426Z,101125.78
2023-11-24T11:02:14.290Z,101118.88
2023-11-24T11:05:18.771Z,101114.53
2023-11-24T11:08:15.278Z,101115.50
2023-11-24T11:10:47.431Z,101114.69
2023-11-24T11:13:16.194Z,101114.75
2023-11-24T11:15:43.526Z,101111.31
2023-11-24T11:18:17.439Z,101101.00
2023-11-24T11:20:46.536Z,101121.66
2023-11-24T11:23:17.054Z,101114.75
2023-11-24T11:25:48.174Z,101109.56
2023-11-24T11:28:23.575Z,101099.19
2023-11-24T11:30:52.002Z,101090.59
2023-11-24T11:33:21.139Z,101083.72
2023-11-24T11:35:50.370Z,101089.72
2023-11-24T11:38:37.110Z,101083.66
2023-11-24T11:41:07.761Z,101087.94
2023-11-24T11:43:53.372Z,101077.56
2023-11-24T11:46:20.587Z,101074.97
2023-11-24T11:48:48.448Z,101099.03
2023-11-24T11:51:18.441Z,101109.31
2023-11-24T11:53:45.782Z,101094.69
2023-11-24T11:56:13.613Z,101098.25
2023-11-24T11:58:43.900Z,101088.03
2023-11-24T12:01:11.259Z,101089.78
2023-11-24T12:03:39.370Z,101109.56
2023-11-24T12:06:07.692Z,101091.53
2023-11-24T12:08:35.270Z,101055.41
2023-11-24T12:11:02.410Z,101057.13
2023-11-24T12:13:30.441Z,101053.72
2023-11-24T12:16:01.158Z,101040.00
2023-11-24T12:18:28.617Z,101029.66
2023-11-24T12:20:55.838Z,101033.97
2023-11-24T12:23:24.826Z,101033.03
2023-11-24T12:25:56.249Z,101025.25
2023-11-24T12:28:23.766Z,101017.47
2023-11-24T12:30:51.134Z,101021.75
2023-11-24T12:33:20.909Z,101016.56
2023-11-24T12:35:56.386Z,101020.84
2023-11-24T12:38:24.221Z,101020.00
2023-11-24T12:40:52.541Z,101024.28
2023-11-24T12:43:21.094Z,101032.88
2023-11-24T12:45:49.858Z,101028.56
2023-11-24T12:48:20.704Z,101022.53
2023-11-24T12:50:49.193Z,101033.75
2023-11-24T12:53:22.464Z,101011.41
2023-11-24T12:55:49.836Z,101021.75
2023-11-24T12:58:17.040Z,101014.91
2023-11-24T13:00:44.237Z,101023.50
2023-11-24T13:03:11.816Z,101026.06
2023-11-24T13:05:39.780Z,101029.50
2023-11-24T13:08:07.810Z,101045.00
2023-11-24T13:10:35.925Z,101032.16
2023-11-24T13:13:03.305Z,101035.66
2023-11-24T13:15:30.544Z,101024.50
2023-11-24T13:17:57.782Z,101020.25
2023-11-24T13:20:30.407Z,101013.38
2023-11-24T13:22:57.815Z,101022.00
2023-11-24T13:25:29.811Z,101012.53
2023-11-24T13:27:57.204Z,101020.28
2023-11-24T13:30:24.392Z,101016.88
2023-11-24T13:32:51.869Z,101004.81
2023-11-24T13:35:21.090Z,101012.59
2023-11-24T13:37:49.479Z,101010.00
2023-11-24T13:40:27.907Z,100995.41
2023-11-24T13:42:55.890Z,101007.41
2023-11-24T13:45:23.117Z,101011.69
2023-11-24T13:47:51.557Z,101019.41
2023-11-24T13:50:20.480Z,101009.06
2023-11-24T13:52:57.667Z,101009.91
2023-11-24T13:55:26.088Z,101006.47
2023-11-24T13:57:55.306Z,101010.78
2023-11-24T14:00:23.324Z,100974.69
2023-11-24T14:02:50.942Z,100997.03
2023-11-24T14:05:18.154Z,100994.44
2023-11-24T14:07:46.321Z,100989.25
2023-11-24T14:10:19.385Z,100983.25
2023-11-24T14:12:49.483Z,100989.28
2023-11-24T14:15:17.663Z,100972.09
2023-11-24T14:17:45.338Z,100982.44
2023-11-24T14:20:14.432Z,100970.38
2023-11-24T14:22:41.657Z,100976.41
2023-11-24T14:25:09.915Z,100980.72
2023-11-24T14:27:39.620Z,100985.84
2023-11-24T14:30:09.266Z,100978.13
2023-11-24T14:32:36.690Z,100988.44
2023-11-24T14:35:07.302Z,100972.09
2023-11-24T14:37:34.874Z,100979.84
2023-11-24T14:40:02.802Z,100984.13
2023-11-24T14:42:30.722Z,100976.38
2023-11-24T14:44:57.857Z,100974.66
2023-11-24T14:47:24.962Z,100980.72
2023-11-24T14:49:52.171Z,100978.09
2023-11-24T14:52:19.835Z,100972.94
2023-11-24T14:54:48.025Z,100978.97
2023-11-24T14:57:17.157Z,100973.78
2023-11-24T14:59:44.426Z,100977.25
2023-11-24T15:02:14.965Z,100994.44
2023-11-24T15:04:44.295Z,101009.91
2023-11-24T15:07:11.829Z,101049.56
2023-11-24T15:09:43.532Z,101023.00
2023-11-24T15:12:10.650Z,101000.72
2023-11-24T15:14:39.543Z,100995.56
2023-11-24T15:17:07.329Z,100993.84
2023-11-24T15:19:37.883Z,101004.16
2023-11-24T15:22:10.961Z,101005.03
2023-11-24T15:24:39.990Z,100996.44
2023-11-24T15:27:09.187Z,100999.88
2023-11-24T15:29:38.930Z,100994.72
2023-11-24T15:32:13.266Z,101008.44
2023-11-24T15:34:45.006Z,100999.00
2023-11-24T15:37:13.106Z,100985.25
2023-11-24T15:39:42.749Z,100988.69
2023-11-24T15:42:10.899Z,100999.84
2023-11-24T15:44:39.457Z,100996.41
2023-11-24T15:47:12.292Z,101004.97
2023-11-24T15:49:43.306Z,101010.13
2023-11-24T15:52:13.791Z,101017.03
2023-11-24T15:54:41.974Z,101034.19
2023-11-24T15:57:13.467Z,100992.09
2023-11-24T15:59:47.100Z,101008.47
2023-11-24T16:02:22.144Z,101003.31
2023-11-24T16:04:57.583Z,100994.72
2023-11-24T16:07:30.821Z,101007.59
2023-11-24T16:09:59.285Z,101011.03
2023-11-24T16:12:33.168Z,101018.78
2023-11-24T16:15:00.351Z,101012.75
2023-11-24T16:17:27.704Z,101000.72
2023-11-24T16:19:54.801Z,101010.16
2023-11-24T16:22:22.416Z,101022.19
2023-11-24T16:24:51.832Z,101020.47
2023-11-24T16:27:19.715Z,101016.19
2023-11-24T16:29:46.852Z,101009.34
2023-11-24T16:32:13.991Z,101005.03
2023-11-24T16:34:44.067Z,101023.09
2023-11-24T16:37:12.561Z,101018.78
2023-11-24T16:39:39.663Z,101007.63
2023-11-24T16:42:06.830Z,101039.41
2023-11-24T16:44:34.087Z,101017.03
2023-11-24T16:47:01.321Z,101034.22
2023-11-24T16:49:32.269Z,101030.81
2023-11-24T16:52:00.176Z,101038.53
2023-11-24T16:54:27.605Z,101032.50
2023-11-24T16:56:54.716Z,101023.06
2023-11-24T16:59:23.164Z,101015.31
2023-11-24T17:01:53.280Z,101008.47
2023-11-24T17:04:21.121Z,101000.72
2023-11-24T17:06:51.556Z,101005.03
2023-11-24T17:09:20.137Z,101004.19
2023-11-24T17:11:47.649Z,100999.88
2023-11-24T17:14:19.503Z,100993.91
2023-11-24T17:16:46.946Z,100993.03
2023-11-24T17:19:15.609Z,101008.47
2023-11-24T17:21:43.132Z,101014.50
2023-11-24T17:24:10.245Z,100994.75
2023-11-24T17:26:37.302Z,100999.03
2023-11-24T17:29:05.047Z,100992.16
2023-11-24T17:31:33.126Z,101006.78
2023-11-24T17:34:02.718Z,101004.19
2023-11-24T17:36:32.275Z,101002.47
2023-11-24T17:39:00.277Z,100999.91
2023-11-24T17:41:27.464Z,101007.63
2023-11-24T17:43:55.653Z,101011.06
2023-11-24T17:46:22.785Z,100998.16
2023-11-24T17:48:49.916Z,101019.63
2023-11-24T17:51:18.093Z,101018.78
2023-11-24T17:53:45.190Z,101022.22
2023-11-24T17:56:12.341Z,101024.78
2023-11-24T17:58:39.475Z,101020.50
2023-11-24T18:01:06.776Z,101023.09
2023-11-24T18:03:34.078Z,101018.78
2023-11-24T18:06:03.473Z,101004.19
2023-11-24T18:08:34.822Z,101004.19
2023-11-24T18:11:02.130Z,101011.03
2023-11-24T18:13:29.823Z,101006.75
2023-11-24T18:15:57.420Z,101011.03
2023-11-24T18:18:24.607Z,101003.31
2023-11-24T18:20:51.769Z,101008.47
2023-11-24T18:23:18.929Z,100999.84
2023-11-24T18:25:46.426Z,101009.31
2023-11-24T18:28:15.517Z,101000.72
2023-11-24T18:30:42.975Z,101014.47
2023-11-24T18:33:10.529Z,101004.13
2023-11-24T18:35:39.799Z,101002.41
2023-11-24T18:38:07.002Z,101002.44
2023-11-24T18:40:34.374Z,101005.00
2023-11-24T18:43:01.534Z,101025.63
2023-11-24T18:45:29.174Z,101029.91
2023-11-24T18:47:56.368Z,101027.34
2023-11-24T18:50:24.079Z,101038.53
2023-11-24T18:52:51.274Z,101042.81
2023-11-24T18:55:18.691Z,101035.09
2023-11-24T18:57:48.582Z,101029.91
2023-11-24T19:00:20.444Z,101041.94
2023-11-24T19:02:49.264Z,101030.78
2023-11-24T19:05:17.502Z,101029.94
2023-11-24T19:07:44.684Z,101047.97
2023-11-24T19:10:12.173Z,101042.81
2023-11-24T19:12:41.176Z,101033.38
2023-11-24T19:15:10.196Z,101039.38
2023-11-24T19:17:41.230Z,101047.97
2023-11-24T19:20:12.353Z,101066.00
2023-11-24T19:22:39.518Z,101050.50
2023-11-24T19:25:07.185Z,101038.50
2023-11-24T19:27:35.126Z,101070.28
2023-11-24T19:30:02.588Z,101053.97
2023-11-24T19:32:30.177Z,101057.41
2023-11-24T19:34:57.410Z,101054.00
2023-11-24T19:37:26.144Z,101051.41
2023-11-24T19:39:53.431Z,101032.50
2023-11-24T19:42:22.554Z,101029.91
2023-11-24T19:44:51.131Z,101050.56
2023-11-24T19:47:18.225Z,101065.16
2023-11-24T19:49:49.194Z,101076.31
2023-11-24T19:52:17.151Z,101085.78
2023-11-24T19:54:44.355Z,101091.78
2023-11-24T19:57:11.450Z,101088.31
2023-11-24T19:59:38.537Z,101090.06
2023-11-24T20:02:06.608Z,101101.22
2023-11-24T20:04:34.280Z,101098.66
2023-11-24T20:07:01.562Z,101097.78
2023-11-24T20:09:28.959Z,101084.03
2023-11-24T20:11:56.122Z,101095.19
2023-11-24T20:14:23.290Z,101094.34
2023-11-24T20:16:51.707Z,101086.63
2023-11-24T20:19:19.204Z,101095.19
2023-11-24T20:21:46.444Z,101108.09
2023-11-24T20:24:13.825Z,101096.91
2023-11-24T20:26:41.673Z,101085.75
2023-11-24T20:29:09.439Z,101093.50
2023-11-24T20:31:37.221Z,101088.31
2023-11-24T20:34:04.556Z,101098.66
2023-11-24T20:36:32.083Z,101095.19
2023-11-24T20:38:59.619Z,101098.66
2023-11-24T20:41:27.090Z,101096.06
2023-11-24T20:43:55.248Z,101098.66
2023-11-24T20:46:22.483Z,101105.53
2023-11-24T20:48:49.697Z,101104.66
2023-11-24T20:51:17.015Z,101112.38
2023-11-24T20:53:44.239Z,101109.81
2023-11-24T20:56:12.423Z,101131.31
2023-11-24T20:58:39.880Z,101121.00
2023-11-24T21:01:07.237Z,101126.16
2023-11-24T21:03:35.141Z,101125.28
2023-11-24T21:06:02.365Z,101139.88
2023-11-24T21:08:29.487Z,101137.31
2023-11-24T21:10:56.563Z,101142.47
2023-11-24T21:13:23.765Z,101144.22
2023-11-24T21:15:51.445Z,101139.91
2023-11-24T21:18:18.791Z,101145.91
2023-11-24T21:20:48.934Z,101161.38
2023-11-24T21:23:16.867Z,101152.78
2023-11-24T21:25:44.605Z,101152.78
2023-11-24T21:28:12.179Z,101158.78
2023-11-24T21:30:44.268Z,101163.09
2023-11-24T21:33:12.815Z,101165.66
2023-11-24T21:35:42.314Z,101160.53
2023-11-24T21:38:11.191Z,101164.81
2023-11-24T21:40:38.975Z,101155.38
2023-11-24T21:43:06.360Z,101165.66
2023-11-24T21:45:33.568Z,101166.53
2023-11-24T21:48:03.551Z,101170.84
2023-11-24T21:50:30.760Z,101177.72
2023-11-24T21:52:57.824Z,101178.56
2023-11-24T21:55:25.513Z,101176.84
2023-11-24T21:57:54.790Z,101186.31
2023-11-24T22:00:21.992Z,101195.75
2023-11-24T22:02:49.955Z,101219.81
2023-11-24T22:05:17.218Z,101219.81
2023-11-24T22:07:44.701Z,101223.25
2023-11-24T22:10:15.899Z,101222.38
2023-11-24T22:12:44.047Z,101226.69
2023-11-24T22:15:12.524Z,101226.69
2023-11-24T22:17:40.004Z,101238.72
2023-11-24T22:20:12.085Z,101230.13
2023-11-24T22:22:40.478Z,101231.84
2023-11-24T22:25:09.043Z,101226.69
2023-11-24T22:27:36.277Z,101231.84
2023-11-24T22:30:08.239Z,101258.44
2023-11-24T22:32:36.866Z,101281.63
2023-11-24T22:35:04.362Z,101286.78
2023-11-24T22:37:33.520Z,101279.84
2023-11-24T22:40:01.667Z,101264.38
2023-11-24T22:42:30.532Z,101248.03
2023-11-24T22:44:57.694Z,101250.63
2023-11-24T22:47:25.537Z,101238.63
2023-11-24T22:49:52.581Z,101248.97
2023-11-24T22:52:19.697Z,101244.66
2023-11-24T22:54:46.876Z,101248.97
2023-11-24T22:57:13.962Z,101260.09
2023-11-24T22:59:41.047Z,101261.00
2023-11-24T23:02:09.087Z,101262.69
2023-11-24T23:04:36.312Z,101269.59
2023-11-24T23:07:03.940Z,101269.59
2023-11-24T23:09:32.272Z,101281.66
2023-11-24T23:11:59.454Z,101291.13
2023-11-24T23:14:32.895Z,101314.31
2023-11-24T23:17:01.662Z,101315.13
2023-11-24T23:19:29.352Z,101305.59
2023-11-24T23:21:56.496Z,101305.59
2023-11-24T23:24:25.826Z,101298.69
2023-11-24T23:26:53.699Z,101296.94
2023-11-24T23:29:20.843Z,101303.84
2023-11-24T23:31:48.115Z,101289.28
2023-11-24T23:34:16.673Z,101312.50
2023-11-24T23:36:44.015Z,101310.84
2023-11-24T23:39:13.668Z,101303.97
2023-11-24T23:41:40.892Z,101301.41
2023-11-24T23:44:09.769Z,101299.66
2023-11-24T23:46:36.891Z,101303.13
2023-11-24T23:49:04.142Z,101301.41
2023-11-24T23:51:31.545Z,101303.97
2023-11-24T23:53:58.868Z,101295.41
2023-11-24T23:56:26.166Z,101301.41
2023-11-24T23:58:53.331Z,101300.50
